createdAt,value
2023-08-04T00:00:18.648Z,0.10
2023-08-04T00:02:46.882Z,0.20
2023-08-04T00:05:14.724Z,0.13
2023-08-04T00:07:45.162Z,0.60
2023-08-04T00:10:13.214Z,0.10
2023-08-04T00:12:41.158Z,0.20
2023-08-04T00:15:09.606Z,0.10
2023-08-04T00:17:40.009Z,0.10
2023-08-04T00:20:11.538Z,0.20
2023-08-04T00:22:40.410Z,0.20
2023-08-04T00:25:09.274Z,0.05
2023-08-04T00:27:37.292Z,0.10
2023-08-04T00:30:05.839Z,0.20
2023-08-04T00:32:33.854Z,0.22
2023-08-04T00:35:04.783Z,0.20
2023-08-04T00:40:01.815Z,0.15
2023-08-04T00:42:29.901Z,0.35
2023-08-04T00:44:57.812Z,0.22
2023-08-04T00:47:26.752Z,0.15
2023-08-04T00:49:55.908Z,0.20
2023-08-04T00:52:25.279Z,0.20
2023-08-04T00:54:53.329Z,0.30
2023-08-04T00:57:21.386Z,0.30
2023-08-04T00:59:49.661Z,0.20
2023-08-04T01:02:17.631Z,0.10
2023-08-04T01:04:45.648Z,0.30
2023-08-04T01:07:21.471Z,0.10
2023-08-04T01:10:05.552Z,0.20
2023-08-04T01:12:42.841Z,0.25
2023-08-04T01:15:12.356Z,0.10
2023-08-04T01:17:41.273Z,0.20
2023-08-04T01:20:10.144Z,0.30
2023-08-04T01:22:39.316Z,0.20
2023-08-04T01:25:07.725Z,0.20
2023-08-04T01:27:39.840Z,0.05
2023-08-04T01:30:12.820Z,0.10
2023-08-04T01:32:40.811Z,0.15
2023-08-04T01:35:10.318Z,0.10
2023-08-04T01:37:39.542Z,0.20
2023-08-04T01:40:08.597Z,0.40
2023-08-04T01:42:36.561Z,0.10
2023-08-04T01:45:04.848Z,0.15
2023-08-04T01:47:32.778Z,0.30
2023-08-04T01:50:00.727Z,0.10
2023-08-04T01:52:28.594Z,0.10
2023-08-04T01:54:58.702Z,0.15
2023-08-04T01:57:26.744Z,0.30
2023-08-04T01:59:54.642Z,0.50
2023-08-04T02:02:22.565Z,0.10
2023-08-04T02:04:50.671Z,0.40
2023-08-04T02:07:18.697Z,0.68
2023-08-04T02:09:47.081Z,0.30
2023-08-04T02:12:16.359Z,0.20
2023-08-04T02:14:44.313Z,0.20
2023-08-04T02:17:13.154Z,0.30
2023-08-04T02:19:41.063Z,0.20
2023-08-04T02:22:09.011Z,0.40
2023-08-04T02:24:36.897Z,0.50
2023-08-04T02:27:05.002Z,0.10
2023-08-04T02:29:34.218Z,0.20
2023-08-04T02:32:02.110Z,0.22
2023-08-04T02:34:37.454Z,0.17
2023-08-04T02:37:05.824Z,0.30
2023-08-04T02:39:35.584Z,0.10
2023-08-04T02:42:03.537Z,0.20
2023-08-04T02:44:31.650Z,0.15
2023-08-04T02:47:00.911Z,0.20
2023-08-04T02:49:30.069Z,0.20
2023-08-04T02:51:57.948Z,0.20
2023-08-04T02:54:25.928Z,0.10
2023-08-04T02:56:53.851Z,0.10
2023-08-04T02:59:21.759Z,0.20
2023-08-04T03:01:49.912Z,0.22
2023-08-04T03:04:19.262Z,0.10
2023-08-04T03:06:47.166Z,0.20
2023-08-04T03:09:15.179Z,0.20
2023-08-04T03:11:43.909Z,0.30
2023-08-04T03:14:11.828Z,0.25
2023-08-04T03:16:39.703Z,0.20
2023-08-04T03:19:07.525Z,0.17
2023-08-04T03:21:37.445Z,0.20
2023-08-04T03:24:05.682Z,0.40
2023-08-04T03:26:33.493Z,0.17
2023-08-04T03:29:01.353Z,0.20
2023-08-04T03:31:29.685Z,0.20
2023-08-04T03:33:57.594Z,0.20
2023-08-04T03:36:25.487Z,0.30
2023-08-04T03:38:54.729Z,0.22
2023-08-04T03:41:22.646Z,0.30
2023-08-04T03:43:50.536Z,0.20
2023-08-04T03:46:18.623Z,0.40
2023-08-04T03:48:46.538Z,0.10
2023-08-04T03:51:15.383Z,0.20
2023-08-04T03:53:43.262Z,0.15
2023-08-04T03:56:12.472Z,0.25
2023-08-04T03:58:40.420Z,0.20
2023-08-04T04:01:08.377Z,0.20
2023-08-04T04:03:37.320Z,0.50
2023-08-04T04:06:05.379Z,0.38
2023-08-04T04:08:33.425Z,0.20
2023-08-04T04:11:01.359Z,0.15
2023-08-04T04:13:30.613Z,0.32
2023-08-04T04:15:58.539Z,0.40
2023-08-04T04:18:26.407Z,0.20
2023-08-04T04:20:54.240Z,0.20
2023-08-04T04:23:22.124Z,0.20
2023-08-04T04:25:51.224Z,0.20
2023-08-04T04:28:19.122Z,0.10
2023-08-04T04:30:48.345Z,0.65
2023-08-04T04:33:16.182Z,0.40
2023-08-04T04:35:49.636Z,0.10
2023-08-04T04:38:17.515Z,0.10
2023-08-04T04:40:45.389Z,0.10
2023-08-04T04:43:13.301Z,0.40
2023-08-04T04:45:51.969Z,0.20
2023-08-04T04:48:21.339Z,0.30
2023-08-04T04:50:49.278Z,0.20
2023-08-04T04:53:17.173Z,0.25
2023-08-04T04:55:45.342Z,0.20
2023-08-04T04:58:13.732Z,0.22
2023-08-04T05:00:41.726Z,0.32
2023-08-04T05:03:12.083Z,0.30
2023-08-04T05:05:40.203Z,0.30
2023-08-04T05:08:08.140Z,0.10
2023-08-04T05:10:36.065Z,0.10
2023-08-04T05:13:03.981Z,0.22
2023-08-04T05:15:31.859Z,0.30
2023-08-04T05:17:59.811Z,0.20
2023-08-04T05:20:29.093Z,0.30
2023-08-04T05:22:56.979Z,0.32
2023-08-04T05:25:24.867Z,0.28
2023-08-04T05:27:52.777Z,0.10
2023-08-04T05:30:20.713Z,0.10
2023-08-04T05:32:48.914Z,0.20
2023-08-04T05:35:17.824Z,0.17
2023-08-04T05:37:47.071Z,0.30
2023-08-04T05:40:15.141Z,0.25
2023-08-04T05:42:42.992Z,0.30
2023-08-04T05:45:11.506Z,0.15
2023-08-04T05:47:39.412Z,0.35
2023-08-04T05:50:08.638Z,0.20
2023-08-04T05:52:36.572Z,0.30
2023-08-04T05:55:06.671Z,0.22
2023-08-04T05:57:34.530Z,0.10
2023-08-04T06:00:02.595Z,0.10
2023-08-04T06:02:30.601Z,0.30
2023-08-04T06:04:58.566Z,0.15
2023-08-04T06:07:27.130Z,0.35
2023-08-04T06:09:54.963Z,0.28
2023-08-04T06:12:27.372Z,0.20
2023-08-04T06:14:55.300Z,0.15
2023-08-04T06:17:23.223Z,0.20
2023-08-04T06:19:51.275Z,0.20
2023-08-04T06:22:19.239Z,0.10
2023-08-04T06:24:47.186Z,0.05
2023-08-04T06:27:15.027Z,0.20
2023-08-04T06:29:44.202Z,0.20
2023-08-04T06:32:12.051Z,0.17
2023-08-04T06:34:40.002Z,0.13
2023-08-04T06:37:08.190Z,0.30
2023-08-04T06:39:36.074Z,0.13
2023-08-04T06:42:05.668Z,0.30
2023-08-04T06:44:33.560Z,0.20
2023-08-04T06:47:03.033Z,0.22
2023-08-04T06:49:31.016Z,0.20
2023-08-04T06:51:58.892Z,0.10
2023-08-04T06:54:26.849Z,0.30
2023-08-04T06:56:54.725Z,0.20
2023-08-04T06:59:22.650Z,0.13
2023-08-04T07:01:50.886Z,0.20
2023-08-04T07:04:20.676Z,0.35
2023-08-04T07:06:48.661Z,0.40
2023-08-04T07:09:16.523Z,0.20
2023-08-04T07:11:44.436Z,0.40
2023-08-04T07:14:12.300Z,0.40
2023-08-04T07:16:40.129Z,0.20
2023-08-04T07:19:08.056Z,0.30
2023-08-04T07:21:38.706Z,0.20
2023-08-04T07:24:07.202Z,0.45
2023-08-04T07:26:35.758Z,0.20
2023-08-04T07:29:03.716Z,0.40
2023-08-04T07:31:32.971Z,0.20
2023-08-04T07:34:01.321Z,0.15
2023-08-04T07:36:29.657Z,0.20
2023-08-04T07:38:58.981Z,0.20
2023-08-04T07:41:26.933Z,0.40
2023-08-04T07:43:54.903Z,0.40
2023-08-04T07:46:26.232Z,0.28
2023-08-04T07:48:54.786Z,0.20
2023-08-04T07:51:23.429Z,0.22
2023-08-04T07:53:51.455Z,0.25
2023-08-04T07:56:20.771Z,0.20
2023-08-04T07:58:49.239Z,0.20
2023-08-04T08:01:17.278Z,0.50
2023-08-04T08:03:45.354Z,0.40
2023-08-04T08:06:13.434Z,0.20
2023-08-04T08:08:41.380Z,0.30
2023-08-04T08:11:10.579Z,0.28
2023-08-04T08:13:40.132Z,0.40
2023-08-04T08:16:09.433Z,0.30
2023-08-04T08:18:37.367Z,0.30
2023-08-04T08:21:07.930Z,0.35
2023-08-04T08:23:36.138Z,0.50
2023-08-04T08:26:05.765Z,0.50
2023-08-04T08:28:33.865Z,0.40
2023-08-04T08:31:03.395Z,0.30
2023-08-04T08:33:38.620Z,0.40
2023-08-04T08:36:07.720Z,0.50
2023-08-04T08:38:35.700Z,0.30
2023-08-04T08:41:04.362Z,0.38
2023-08-04T08:43:32.485Z,0.80
2023-08-04T08:46:02.221Z,0.30
2023-08-04T08:48:32.528Z,0.32
2023-08-04T08:51:05.037Z,0.32
2023-08-04T08:53:33.689Z,0.50
2023-08-04T08:56:02.448Z,0.50
2023-08-04T08:58:32.632Z,0.38
2023-08-04T09:01:03.413Z,0.20
2023-08-04T09:03:31.680Z,0.40
2023-08-04T09:05:59.622Z,0.68
2023-08-04T09:08:27.636Z,0.40
2023-08-04T09:10:55.505Z,0.50
2023-08-04T09:13:23.452Z,0.50
2023-08-04T09:15:52.889Z,0.45
2023-08-04T09:18:30.033Z,0.70
2023-08-04T09:21:02.286Z,0.43
2023-08-04T09:23:32.081Z,0.43
2023-08-04T09:26:00.064Z,0.70
2023-08-04T09:28:29.389Z,0.70
2023-08-04T09:31:04.958Z,0.68
2023-08-04T09:33:35.339Z,0.70
2023-08-04T09:36:08.164Z,0.60
2023-08-04T09:38:37.680Z,0.93
2023-08-04T09:41:08.393Z,0.80
2023-08-04T09:43:36.472Z,0.70
2023-08-04T09:46:06.512Z,0.63
2023-08-04T09:48:36.098Z,0.98
2023-08-04T09:51:07.257Z,1.10
2023-08-04T09:53:37.938Z,0.70
2023-08-04T09:56:07.381Z,0.70
2023-08-04T09:58:35.652Z,0.80
2023-08-04T10:01:04.701Z,0.82
2023-08-04T10:03:34.510Z,0.55
2023-08-04T10:06:04.708Z,0.70
2023-08-04T10:08:33.577Z,1.00
2023-08-04T10:11:02.059Z,0.70
2023-08-04T10:13:33.938Z,0.60
2023-08-04T10:16:06.071Z,0.60
2023-08-04T10:18:51.272Z,0.80
2023-08-04T10:21:22.632Z,0.70
2023-08-04T10:23:52.969Z,0.70
2023-08-04T10:26:21.136Z,0.50
2023-08-04T10:29:02.903Z,0.40
2023-08-04T10:31:52.872Z,0.43
2023-08-04T10:34:26.653Z,0.35
2023-08-04T10:37:02.164Z,0.60
2023-08-04T10:39:32.258Z,0.47
2023-08-04T10:42:01.212Z,0.40
2023-08-04T10:44:33.087Z,0.50
2023-08-04T10:47:02.862Z,0.43
2023-08-04T10:49:30.926Z,0.57
2023-08-04T10:52:01.364Z,0.50
2023-08-04T10:54:29.782Z,0.60
2023-08-04T10:56:57.708Z,0.50
2023-08-04T10:59:25.638Z,0.50
2023-08-04T11:01:53.581Z,0.40
2023-08-04T11:04:23.618Z,0.50
2023-08-04T11:09:22.568Z,0.40
2023-08-04T11:11:50.780Z,0.43
2023-08-04T11:14:20.148Z,0.40
2023-08-04T11:16:50.400Z,0.50
2023-08-04T11:19:22.565Z,0.50
2023-08-04T11:21:50.725Z,0.40
2023-08-04T11:24:25.710Z,0.22
2023-08-04T11:26:53.773Z,0.60
2023-08-04T11:29:21.735Z,0.35
2023-08-04T11:31:50.932Z,0.43
2023-08-04T11:34:19.124Z,0.40
2023-08-04T11:36:47.553Z,0.40
2023-08-04T11:39:15.608Z,0.40
2023-08-04T11:41:46.273Z,0.47
2023-08-04T11:44:17.064Z,0.45
2023-08-04T11:46:45.158Z,0.60
2023-08-04T11:49:13.437Z,0.30
2023-08-04T11:51:45.024Z,0.50
2023-08-04T11:54:21.134Z,0.32
2023-08-04T11:56:55.203Z,0.50
2023-08-04T11:59:23.266Z,0.70
2023-08-04T12:02:06.681Z,0.52
2023-08-04T12:04:35.986Z,0.80
2023-08-04T12:07:06.759Z,0.75
2023-08-04T12:09:35.221Z,0.75
2023-08-04T12:12:05.860Z,0.65
2023-08-04T12:14:41.267Z,1.00
2023-08-04T12:17:12.875Z,0.93
2023-08-04T12:19:41.780Z,0.65
2023-08-04T12:22:09.829Z,1.00
2023-08-04T12:24:37.902Z,0.90
2023-08-04T12:27:07.555Z,0.68
2023-08-04T12:29:37.515Z,1.02
2023-08-04T12:32:06.243Z,0.70
2023-08-04T12:34:34.301Z,1.05
2023-08-04T12:37:02.249Z,0.95
2023-08-04T12:39:30.171Z,0.85
2023-08-04T12:41:58.115Z,1.10
2023-08-04T12:44:27.361Z,0.90
2023-08-04T12:46:55.362Z,0.93
2023-08-04T12:49:23.273Z,1.23
2023-08-04T12:51:51.313Z,0.88
2023-08-04T12:54:19.246Z,1.10
2023-08-04T12:56:47.181Z,0.77
2023-08-04T12:59:15.130Z,0.68
2023-08-04T13:01:44.625Z,0.70
2023-08-04T13:04:12.658Z,0.80
2023-08-04T13:06:40.580Z,1.10
2023-08-04T13:09:08.921Z,0.80
2023-08-04T13:11:36.773Z,0.80
2023-08-04T13:14:07.402Z,0.98
2023-08-04T13:16:35.498Z,0.80
2023-08-04T13:19:05.258Z,0.75
2023-08-04T13:21:33.169Z,0.90
2023-08-04T13:24:01.048Z,1.20
2023-08-04T13:26:29.028Z,0.98
2023-08-04T13:28:56.975Z,0.85
2023-08-04T13:31:25.282Z,1.20
2023-08-04T13:33:53.301Z,1.00
2023-08-04T13:36:22.512Z,0.95
2023-08-04T13:38:51.826Z,0.80
2023-08-04T13:41:19.789Z,1.20
2023-08-04T13:43:49.058Z,0.70
2023-08-04T13:46:17.111Z,0.90
2023-08-04T13:48:46.248Z,0.80
2023-08-04T13:51:26.285Z,0.90
2023-08-04T13:53:57.463Z,0.95
2023-08-04T13:56:25.444Z,1.40
2023-08-04T13:58:53.706Z,0.85
2023-08-04T14:01:22.998Z,1.17
2023-08-04T14:03:51.044Z,0.82
2023-08-04T14:06:19.019Z,1.30
2023-08-04T14:08:46.944Z,1.10
2023-08-04T14:11:16.231Z,1.17
2023-08-04T14:13:44.249Z,1.38
2023-08-04T14:16:12.524Z,0.85
2023-08-04T14:18:41.038Z,1.27
2023-08-04T14:21:09.110Z,1.35
2023-08-04T14:23:37.062Z,1.17
2023-08-04T14:26:05.696Z,1.40
2023-08-04T14:28:35.002Z,1.23
2023-08-04T14:31:02.969Z,1.00
2023-08-04T14:33:30.988Z,1.15
2023-08-04T14:35:58.945Z,0.90
2023-08-04T14:38:27.037Z,0.90
2023-08-04T14:40:55.019Z,0.98
2023-08-04T14:43:22.952Z,1.08
2023-08-04T14:45:52.329Z,1.00
2023-08-04T14:48:20.235Z,0.98
2023-08-04T14:50:48.184Z,1.08
2023-08-04T14:53:16.570Z,1.40
2023-08-04T14:55:44.569Z,1.02
2023-08-04T14:58:12.475Z,1.25
2023-08-04T15:00:41.067Z,1.33
2023-08-04T15:03:10.421Z,1.38
2023-08-04T15:05:38.368Z,1.13
2023-08-04T15:08:06.632Z,0.93
2023-08-04T15:10:35.499Z,1.38
2023-08-04T15:13:03.396Z,0.80
2023-08-04T15:15:31.360Z,1.10
2023-08-04T15:17:59.323Z,1.45
2023-08-04T15:20:28.802Z,1.05
2023-08-04T15:22:56.796Z,1.20
2023-08-04T15:25:25.912Z,1.17
2023-08-04T15:27:55.152Z,1.42
2023-08-04T15:30:23.120Z,1.08
2023-08-04T15:32:54.678Z,1.13
2023-08-04T15:35:24.256Z,1.15
2023-08-04T15:37:53.654Z,0.93
2023-08-04T15:40:21.707Z,1.20
2023-08-04T15:42:50.998Z,1.20
2023-08-04T15:45:19.895Z,0.93
2023-08-04T15:47:48.056Z,0.95
2023-08-04T15:50:16.156Z,0.90
2023-08-04T15:52:44.073Z,0.85
2023-08-04T15:55:13.941Z,0.75
2023-08-04T15:57:42.301Z,0.90
2023-08-04T16:00:12.010Z,0.70
2023-08-04T16:02:40.944Z,0.88
2023-08-04T16:05:09.628Z,0.77
2023-08-04T16:07:37.534Z,0.60
2023-08-04T16:10:05.976Z,0.80
2023-08-04T16:12:35.724Z,0.80
2023-08-04T16:15:04.150Z,0.85
2023-08-04T16:17:32.145Z,0.80
2023-08-04T16:20:00.182Z,0.70
2023-08-04T16:22:28.406Z,0.85
2023-08-04T16:24:56.292Z,0.93
2023-08-04T16:27:24.220Z,0.90
2023-08-04T16:29:53.485Z,0.90
2023-08-04T16:32:21.453Z,0.70
2023-08-04T16:34:49.452Z,1.10
2023-08-04T16:37:17.421Z,0.68
2023-08-04T16:39:45.758Z,0.93
2023-08-04T16:42:13.646Z,0.90
2023-08-04T16:44:41.615Z,1.02
2023-08-04T16:47:10.856Z,0.60
2023-08-04T16:49:38.751Z,0.85
2023-08-04T16:52:07.636Z,0.80
2023-08-04T16:54:35.647Z,0.88
2023-08-04T16:57:03.541Z,0.90
2023-08-04T16:59:31.480Z,0.50
2023-08-04T17:01:59.397Z,0.80
2023-08-04T17:04:29.169Z,0.65
2023-08-04T17:06:57.043Z,0.80
2023-08-04T17:09:27.192Z,0.88
2023-08-04T17:11:55.437Z,0.88
2023-08-04T17:14:23.442Z,0.80
2023-08-04T17:16:51.647Z,0.70
2023-08-04T17:19:19.797Z,0.95
2023-08-04T17:21:49.040Z,0.70
2023-08-04T17:24:17.032Z,0.70
2023-08-04T17:26:44.871Z,0.70
2023-08-04T17:29:12.766Z,0.85
2023-08-04T17:31:45.093Z,0.98
2023-08-04T17:34:13.251Z,0.55
2023-08-04T17:36:42.281Z,0.68
2023-08-04T17:39:11.815Z,0.88
2023-08-04T17:41:39.761Z,0.80
2023-08-04T17:44:07.762Z,1.00
2023-08-04T17:46:35.616Z,0.98
2023-08-04T17:49:03.554Z,1.00
2023-08-04T17:51:31.466Z,1.10
2023-08-04T17:53:59.380Z,1.20
2023-08-04T17:56:28.625Z,1.08
2023-08-04T17:58:56.616Z,1.20
2023-08-04T18:01:24.631Z,1.20
2023-08-04T18:03:52.560Z,1.10
2023-08-04T18:06:20.402Z,0.95
2023-08-04T18:08:48.269Z,1.10
2023-08-04T18:11:16.103Z,1.45
2023-08-04T18:13:45.388Z,1.25
2023-08-04T18:16:13.905Z,1.17
2023-08-04T18:18:42.480Z,1.25
2023-08-04T18:21:10.827Z,1.13
2023-08-04T18:23:39.063Z,1.23
2023-08-04T18:26:08.398Z,0.95
2023-08-04T18:28:36.317Z,0.98
2023-08-04T18:31:05.573Z,1.92
2023-08-04T18:33:33.601Z,1.48
2023-08-04T18:36:02.081Z,1.25
2023-08-04T18:38:29.966Z,1.50
2023-08-04T18:40:57.860Z,1.23
2023-08-04T18:43:25.773Z,1.08
2023-08-04T18:45:55.795Z,1.10
2023-08-04T18:48:25.082Z,1.87
2023-08-04T18:50:52.993Z,0.98
2023-08-04T18:53:20.923Z,1.58
2023-08-04T18:55:48.802Z,0.95
2023-08-04T18:58:16.670Z,1.17
2023-08-04T19:00:44.681Z,1.30
2023-08-04T19:03:12.817Z,1.13
2023-08-04T19:05:42.241Z,1.27
2023-08-04T19:08:10.103Z,1.17
2023-08-04T19:10:38.024Z,1.30
2023-08-04T19:13:05.933Z,1.63
2023-08-04T19:15:33.937Z,1.42
2023-08-04T19:18:01.871Z,1.15
2023-08-04T19:20:29.801Z,1.38
2023-08-04T19:22:59.112Z,1.23
2023-08-04T19:25:26.998Z,1.10
2023-08-04T19:27:54.941Z,1.40
2023-08-04T19:30:23.034Z,1.48
2023-08-04T19:32:51.041Z,1.30
2023-08-04T19:35:19.004Z,1.20
2023-08-04T19:37:46.919Z,1.45
2023-08-04T19:40:16.189Z,1.30
2023-08-04T19:42:44.063Z,1.65
2023-08-04T19:45:12.218Z,1.50
2023-08-04T19:47:40.232Z,1.10
2023-08-04T19:50:09.213Z,1.40
2023-08-04T19:52:37.064Z,1.00
2023-08-04T19:55:05.653Z,1.20
2023-08-04T19:57:34.894Z,1.52
2023-08-04T20:00:02.849Z,1.33
2023-08-04T20:02:30.908Z,1.17
2023-08-04T20:04:58.788Z,1.20
2023-08-04T20:07:26.717Z,1.33
2023-08-04T20:09:54.553Z,1.40
2023-08-04T20:12:22.462Z,1.45
2023-08-04T20:14:52.236Z,1.60
2023-08-04T20:17:20.259Z,1.52
2023-08-04T20:19:48.140Z,1.20
2023-08-04T20:22:15.984Z,1.60
2023-08-04T20:24:45.606Z,1.17
2023-08-04T20:27:13.491Z,0.80
2023-08-04T20:29:41.375Z,1.05
2023-08-04T20:32:12.612Z,1.63
2023-08-04T20:34:40.479Z,1.20
2023-08-04T20:37:08.346Z,1.30
2023-08-04T20:39:36.244Z,1.52
2023-08-04T20:42:04.253Z,0.98
2023-08-04T20:44:32.157Z,1.40
2023-08-04T20:47:00.044Z,1.38
2023-08-04T20:49:29.483Z,1.25
2023-08-04T20:51:56.417Z,1.58
2023-08-04T20:54:24.376Z,1.15
2023-08-04T20:56:52.226Z,1.77
2023-08-04T20:59:20.327Z,1.27
2023-08-04T21:01:48.245Z,1.20
2023-08-04T21:04:16.173Z,1.40
2023-08-04T21:06:45.485Z,1.13
2023-08-04T21:09:14.644Z,1.40
2023-08-04T21:11:43.500Z,1.50
2023-08-04T21:14:11.903Z,1.10
2023-08-04T21:16:40.042Z,1.40
2023-08-04T21:19:07.934Z,0.95
2023-08-04T21:21:37.124Z,1.15
2023-08-04T21:24:06.711Z,1.48
2023-08-04T21:26:34.572Z,1.50
2023-08-04T21:29:02.439Z,1.00
2023-08-04T21:31:30.613Z,1.10
2023-08-04T21:33:58.634Z,1.20
2023-08-04T21:36:26.535Z,1.17
2023-08-04T21:38:54.418Z,1.40
2023-08-04T21:41:23.752Z,1.17
2023-08-04T21:43:51.635Z,1.10
2023-08-04T21:46:19.597Z,1.75
2023-08-04T21:48:47.496Z,1.00
2023-08-04T21:51:16.781Z,1.58
2023-08-04T21:53:44.858Z,1.83
2023-08-04T21:56:12.916Z,1.00
2023-08-04T21:58:42.904Z,1.02
2023-08-04T22:01:12.051Z,1.55
2023-08-04T22:03:40.048Z,1.00
2023-08-04T22:06:08.428Z,1.20
2023-08-04T22:08:36.442Z,1.15
2023-08-04T22:11:08.913Z,1.08
2023-08-04T22:13:36.831Z,0.85
2023-08-04T22:16:06.437Z,1.60
2023-08-04T22:18:34.521Z,1.27
2023-08-04T22:21:05.572Z,1.10
2023-08-04T22:26:02.603Z,1.25
2023-08-04T22:28:31.181Z,1.52
2023-08-04T22:31:01.229Z,0.82
2023-08-04T22:33:32.070Z,1.50
2023-08-04T22:36:00.040Z,1.45
2023-08-04T22:38:28.342Z,1.48
2023-08-04T22:40:58.337Z,1.23
2023-08-04T22:43:26.478Z,1.30
2023-08-04T22:45:54.407Z,1.52
2023-08-04T22:48:22.337Z,1.00
2023-08-04T22:50:51.711Z,1.30
2023-08-04T22:53:19.724Z,1.40
2023-08-04T22:55:47.733Z,0.65
2023-08-04T22:58:15.637Z,0.88
2023-08-04T23:00:43.596Z,0.85
2023-08-04T23:03:11.557Z,1.00
2023-08-04T23:05:39.510Z,1.08
2023-08-04T23:08:08.767Z,1.05
2023-08-04T23:10:36.593Z,0.95
2023-08-04T23:13:05.077Z,1.20
2023-08-04T23:15:32.948Z,1.10
2023-08-04T23:18:00.905Z,1.00
2023-08-04T23:20:28.782Z,1.27
2023-08-04T23:22:56.659Z,0.98
2023-08-04T23:25:25.874Z,1.50
2023-08-04T23:27:53.743Z,1.25
2023-08-04T23:30:21.638Z,1.20
2023-08-04T23:32:49.614Z,1.30
2023-08-04T23:35:17.646Z,1.33
2023-08-04T23:37:45.585Z,1.30
2023-08-04T23:40:13.781Z,1.10
2023-08-04T23:42:42.988Z,1.02
2023-08-04T23:45:11.733Z,1.13
2023-08-04T23:47:39.714Z,1.10
2023-08-04T23:50:09.142Z,1.40
2023-08-04T23:52:37.022Z,1.20
2023-08-04T23:55:05.451Z,1.10
2023-08-04T23:57:33.389Z,1.30
